sensor_id;sensor_type;location;lat;lon;timestamp;P1;durP1;ratioP1;P2;durP2;ratioP2
74616;SDS011;63123;50.906;4.198;2023-04-24T00:00:54;5.03;;;4.28;;
74616;SDS011;63123;50.906;4.198;2023-04-24T00:03:22;4.80;;;4.40;;
74616;SDS011;63123;50.906;4.198;2023-04-24T00:05:48;4.55;;;3.80;;
74616;SDS011;63123;50.906;4.198;2023-04-24T00:08:13;4.28;;;3.88;;
74616;SDS011;63123;50.906;4.198;2023-04-24T00:10:39;4.20;;;3.80;;
74616;SDS011;63123;50.906;4.198;2023-04-24T00:13:05;5.03;;;4.50;;
74616;SDS011;63123;50.906;4.198;2023-04-24T00:15:31;3.92;;;3.63;;
74616;SDS011;63123;50.906;4.198;2023-04-24T00:17:57;4.05;;;3.75;;
74616;SDS011;63123;50.906;4.198;2023-04-24T00:20:23;4.53;;;4.13;;
74616;SDS011;63123;50.906;4.198;2023-04-24T00:22:48;5.38;;;4.13;;
74616;SDS011;63123;50.906;4.198;2023-04-24T00:25:14;4.20;;;3.80;;
74616;SDS011;63123;50.906;4.198;2023-04-24T00:27:40;5.10;;;4.38;;
74616;SDS011;63123;50.906;4.198;2023-04-24T00:30:06;4.65;;;3.97;;
74616;SDS011;63123;50.906;4.198;2023-04-24T00:32:32;4.13;;;3.75;;
74616;SDS011;63123;50.906;4.198;2023-04-24T00:34:57;5.03;;;3.60;;
74616;SDS011;63123;50.906;4.198;2023-04-24T00:37:23;4.28;;;3.90;;
74616;SDS011;63123;50.906;4.198;2023-04-24T00:39:49;4.00;;;3.70;;
74616;SDS011;63123;50.906;4.198;2023-04-24T00:42:14;5.18;;;4.63;;
74616;SDS011;63123;50.906;4.198;2023-04-24T00:44:40;4.07;;;3.67;;
74616;SDS011;63123;50.906;4.198;2023-04-24T00:47:06;3.78;;;3.45;;
74616;SDS011;63123;50.906;4.198;2023-04-24T00:49:32;3.92;;;3.53;;
74616;SDS011;63123;50.906;4.198;2023-04-24T00:51:58;4.00;;;3.70;;
74616;SDS011;63123;50.906;4.198;2023-04-24T00:54:24;4.28;;;3.92;;
74616;SDS011;63123;50.906;4.198;2023-04-24T00:56:50;4.10;;;3.72;;
74616;SDS011;63123;50.906;4.198;2023-04-24T00:59:16;4.43;;;4.03;;
74616;SDS011;63123;50.906;4.198;2023-04-24T01:01:43;4.90;;;4.28;;
74616;SDS011;63123;50.906;4.198;2023-04-24T01:04:10;4.55;;;4.15;;
74616;SDS011;63123;50.906;4.198;2023-04-24T01:06:38;5.05;;;4.15;;
74616;SDS011;63123;50.906;4.198;2023-04-24T01:09:04;4.38;;;3.90;;
74616;SDS011;63123;50.906;4.198;2023-04-24T01:11:30;3.80;;;3.50;;
74616;SDS011;63123;50.906;4.198;2023-04-24T01:13:56;4.30;;;3.90;;
74616;SDS011;63123;50.906;4.198;2023-04-24T01:16:23;4.93;;;3.97;;
74616;SDS011;63123;50.906;4.198;2023-04-24T01:18:49;4.10;;;3.65;;
74616;SDS011;63123;50.906;4.198;2023-04-24T01:21:16;4.40;;;4.00;;
74616;SDS011;63123;50.906;4.198;2023-04-24T01:23:43;3.85;;;3.55;;
74616;SDS011;63123;50.906;4.198;2023-04-24T01:26:10;4.30;;;3.90;;
74616;SDS011;63123;50.906;4.198;2023-04-24T01:28:36;3.92;;;3.63;;
74616;SDS011;63123;50.906;4.198;2023-04-24T01:31:02;3.80;;;3.50;;
74616;SDS011;63123;50.906;4.198;2023-04-24T01:33:28;3.67;;;3.38;;
74616;SDS011;63123;50.906;4.198;2023-04-24T01:35:54;4.25;;;3.90;;
74616;SDS011;63123;50.906;4.198;2023-04-24T01:38:20;3.70;;;3.40;;
74616;SDS011;63123;50.906;4.198;2023-04-24T01:40:46;4.40;;;3.35;;
74616;SDS011;63123;50.906;4.198;2023-04-24T01:43:12;4.00;;;3.65;;
74616;SDS011;63123;50.906;4.198;2023-04-24T01:45:38;3.53;;;3.22;;
74616;SDS011;63123;50.906;4.198;2023-04-24T01:48:03;3.40;;;2.83;;
74616;SDS011;63123;50.906;4.198;2023-04-24T01:50:30;3.40;;;3.10;;
74616;SDS011;63123;50.906;4.198;2023-04-24T01:52:55;3.33;;;3.10;;
74616;SDS011;63123;50.906;4.198;2023-04-24T01:55:21;3.30;;;2.67;;
74616;SDS011;63123;50.906;4.198;2023-04-24T01:57:47;3.15;;;2.85;;
74616;SDS011;63123;50.906;4.198;2023-04-24T02:00:12;2.53;;;2.33;;
74616;SDS011;63123;50.906;4.198;2023-04-24T02:02:39;3.13;;;2.63;;
74616;SDS011;63123;50.906;4.198;2023-04-24T02:05:06;2.53;;;2.33;;
74616;SDS011;63123;50.906;4.198;2023-04-24T02:07:32;3.10;;;2.75;;
74616;SDS011;63123;50.906;4.198;2023-04-24T02:09:58;2.80;;;2.60;;
74616;SDS011;63123;50.906;4.198;2023-04-24T02:12:24;4.80;;;3.35;;
74616;SDS011;63123;50.906;4.198;2023-04-24T02:14:49;2.97;;;2.70;;
74616;SDS011;63123;50.906;4.198;2023-04-24T02:17:15;3.95;;;2.90;;
74616;SDS011;63123;50.906;4.198;2023-04-24T02:19:41;3.22;;;3.03;;
74616;SDS011;63123;50.906;4.198;2023-04-24T02:22:07;3.33;;;3.03;;
74616;SDS011;63123;50.906;4.198;2023-04-24T02:24:33;3.85;;;2.80;;
74616;SDS011;63123;50.906;4.198;2023-04-24T02:26:58;3.17;;;2.88;;
74616;SDS011;63123;50.906;4.198;2023-04-24T02:29:25;3.38;;;3.08;;
74616;SDS011;63123;50.906;4.198;2023-04-24T02:31:50;3.55;;;3.15;;
74616;SDS011;63123;50.906;4.198;2023-04-24T02:34:16;2.88;;;2.67;;
74616;SDS011;63123;50.906;4.198;2023-04-24T02:36:41;3.42;;;3.13;;
74616;SDS011;63123;50.906;4.198;2023-04-24T02:39:07;3.38;;;3.08;;
74616;SDS011;63123;50.906;4.198;2023-04-24T02:41:33;3.47;;;3.10;;
74616;SDS011;63123;50.906;4.198;2023-04-24T02:43:58;3.35;;;3.05;;
74616;SDS011;63123;50.906;4.198;2023-04-24T02:46:24;3.58;;;3.15;;
74616;SDS011;63123;50.906;4.198;2023-04-24T02:48:50;3.58;;;3.28;;
74616;SDS011;63123;50.906;4.198;2023-04-24T02:51:16;3.47;;;3.15;;
74616;SDS011;63123;50.906;4.198;2023-04-24T02:53:42;3.53;;;3.22;;
74616;SDS011;63123;50.906;4.198;2023-04-24T02:56:07;3.33;;;2.80;;
74616;SDS011;63123;50.906;4.198;2023-04-24T02:58:33;3.20;;;2.90;;
74616;SDS011;63123;50.906;4.198;2023-04-24T03:00:59;3.47;;;3.17;;
74616;SDS011;63123;50.906;4.198;2023-04-24T03:03:25;3.13;;;2.92;;
74616;SDS011;63123;50.906;4.198;2023-04-24T03:05:51;3.22;;;2.92;;
74616;SDS011;63123;50.906;4.198;2023-04-24T03:08:17;3.53;;;3.22;;
74616;SDS011;63123;50.906;4.198;2023-04-24T03:10:42;3.10;;;2.90;;
74616;SDS011;63123;50.906;4.198;2023-04-24T03:13:08;2.97;;;2.67;;
74616;SDS011;63123;50.906;4.198;2023-04-24T03:15:34;3.63;;;3.33;;
74616;SDS011;63123;50.906;4.198;2023-04-24T03:18:00;3.20;;;2.90;;
74616;SDS011;63123;50.906;4.198;2023-04-24T03:20:25;2.80;;;2.60;;
74616;SDS011;63123;50.906;4.198;2023-04-24T03:22:51;3.15;;;2.85;;
74616;SDS011;63123;50.906;4.198;2023-04-24T03:25:17;3.30;;;2.60;;
74616;SDS011;63123;50.906;4.198;2023-04-24T03:27:43;3.13;;;2.80;;
74616;SDS011;63123;50.906;4.198;2023-04-24T03:30:08;3.42;;;2.72;;
74616;SDS011;63123;50.906;4.198;2023-04-24T03:32:34;3.30;;;2.70;;
74616;SDS011;63123;50.906;4.198;2023-04-24T03:35:00;2.90;;;2.53;;
74616;SDS011;63123;50.906;4.198;2023-04-24T03:37:25;3.00;;;2.80;;
74616;SDS011;63123;50.906;4.198;2023-04-24T03:39:51;2.40;;;2.20;;
74616;SDS011;63123;50.906;4.198;2023-04-24T03:42:17;2.70;;;2.50;;
74616;SDS011;63123;50.906;4.198;2023-04-24T03:44:43;2.88;;;2.63;;
74616;SDS011;63123;50.906;4.198;2023-04-24T03:47:08;2.85;;;2.58;;
74616;SDS011;63123;50.906;4.198;2023-04-24T03:49:34;2.78;;;2.58;;
74616;SDS011;63123;50.906;4.198;2023-04-24T03:52:00;2.58;;;2.38;;
74616;SDS011;63123;50.906;4.198;2023-04-24T03:54:26;2.47;;;2.28;;
74616;SDS011;63123;50.906;4.198;2023-04-24T03:56:52;2.55;;;2.35;;
74616;SDS011;63123;50.906;4.198;2023-04-24T03:59:18;3.55;;;2.88;;
74616;SDS011;63123;50.906;4.198;2023-04-24T04:01:43;2.30;;;2.05;;
74616;SDS011;63123;50.906;4.198;2023-04-24T04:04:10;2.53;;;2.33;;
74616;SDS011;63123;50.906;4.198;2023-04-24T04:06:36;2.38;;;2.17;;
74616;SDS011;63123;50.906;4.198;2023-04-24T04:09:02;2.20;;;2.00;;
74616;SDS011;63123;50.906;4.198;2023-04-24T04:11:28;2.28;;;2.08;;
74616;SDS011;63123;50.906;4.198;2023-04-24T04:13:54;2.42;;;2.22;;
74616;SDS011;63123;50.906;4.198;2023-04-24T04:16:21;2.20;;;2.00;;
74616;SDS011;63123;50.906;4.198;2023-04-24T04:18:47;2.30;;;2.08;;
74616;SDS011;63123;50.906;4.198;2023-04-24T04:21:13;2.33;;;2.13;;
74616;SDS011;63123;50.906;4.198;2023-04-24T04:23:39;2.20;;;2.00;;
74616;SDS011;63123;50.906;4.198;2023-04-24T04:26:05;2.30;;;2.10;;
74616;SDS011;63123;50.906;4.198;2023-04-24T04:28:31;2.70;;;2.50;;
74616;SDS011;63123;50.906;4.198;2023-04-24T04:30:57;2.60;;;2.40;;
74616;SDS011;63123;50.906;4.198;2023-04-24T04:33:23;3.13;;;2.70;;
74616;SDS011;63123;50.906;4.198;2023-04-24T04:35:49;2.55;;;2.35;;
74616;SDS011;63123;50.906;4.198;2023-04-24T04:38:17;3.10;;;2.35;;
74616;SDS011;63123;50.906;4.198;2023-04-24T04:40:44;2.90;;;2.53;;
74616;SDS011;63123;50.906;4.198;2023-04-24T04:43:10;4.90;;;2.55;;
74616;SDS011;63123;50.906;4.198;2023-04-24T04:45:36;2.83;;;2.63;;
74616;SDS011;63123;50.906;4.198;2023-04-24T04:48:03;3.10;;;2.72;;
74616;SDS011;63123;50.906;4.198;2023-04-24T04:50:32;3.28;;;2.63;;
74616;SDS011;63123;50.906;4.198;2023-04-24T04:52:58;2.75;;;2.55;;
74616;SDS011;63123;50.906;4.198;2023-04-24T04:55:23;3.35;;;3.03;;
74616;SDS011;63123;50.906;4.198;2023-04-24T04:57:49;4.25;;;3.08;;
74616;SDS011;63123;50.906;4.198;2023-04-24T05:00:15;3.35;;;3.08;;
74616;SDS011;63123;50.906;4.198;2023-04-24T05:02:41;3.33;;;2.97;;
74616;SDS011;63123;50.906;4.198;2023-04-24T05:05:08;3.38;;;3.08;;
74616;SDS011;63123;50.906;4.198;2023-04-24T05:07:34;3.10;;;2.90;;
74616;SDS011;63123;50.906;4.198;2023-04-24T05:10:00;3.20;;;2.90;;
74616;SDS011;63123;50.906;4.198;2023-04-24T05:12:26;3.08;;;2.80;;
74616;SDS011;63123;50.906;4.198;2023-04-24T05:14:51;2.83;;;2.60;;
74616;SDS011;63123;50.906;4.198;2023-04-24T05:17:17;3.58;;;3.08;;
74616;SDS011;63123;50.906;4.198;2023-04-24T05:19:43;2.80;;;2.60;;
74616;SDS011;63123;50.906;4.198;2023-04-24T05:22:09;3.22;;;2.92;;
74616;SDS011;63123;50.906;4.198;2023-04-24T05:24:36;3.22;;;2.92;;
74616;SDS011;63123;50.906;4.198;2023-04-24T05:27:03;3.25;;;2.92;;
74616;SDS011;63123;50.906;4.198;2023-04-24T05:29:32;2.63;;;2.42;;
74616;SDS011;63123;50.906;4.198;2023-04-24T05:31:58;2.92;;;2.72;;
74616;SDS011;63123;50.906;4.198;2023-04-24T05:34:24;2.83;;;2.63;;
74616;SDS011;63123;50.906;4.198;2023-04-24T05:36:50;3.28;;;2.97;;
74616;SDS011;63123;50.906;4.198;2023-04-24T05:39:16;2.88;;;2.67;;
74616;SDS011;63123;50.906;4.198;2023-04-24T05:41:42;2.70;;;2.50;;
74616;SDS011;63123;50.906;4.198;2023-04-24T05:44:07;2.53;;;2.33;;
74616;SDS011;63123;50.906;4.198;2023-04-24T05:46:33;3.10;;;2.35;;
74616;SDS011;63123;50.906;4.198;2023-04-24T05:48:59;3.08;;;2.60;;
74616;SDS011;63123;50.906;4.198;2023-04-24T05:51:25;3.10;;;2.80;;
74616;SDS011;63123;50.906;4.198;2023-04-24T05:53:51;2.85;;;2.63;;
74616;SDS011;63123;50.906;4.198;2023-04-24T05:56:17;2.95;;;2.65;;
74616;SDS011;63123;50.906;4.198;2023-04-24T05:58:42;2.72;;;2.53;;
74616;SDS011;63123;50.906;4.198;2023-04-24T06:01:08;2.80;;;2.60;;
74616;SDS011;63123;50.906;4.198;2023-04-24T06:03:34;3.42;;;2.90;;
74616;SDS011;63123;50.906;4.198;2023-04-24T06:06:00;3.50;;;3.20;;
74616;SDS011;63123;50.906;4.198;2023-04-24T06:08:26;3.00;;;2.80;;
74616;SDS011;63123;50.906;4.198;2023-04-24T06:10:51;3.83;;;3.50;;
74616;SDS011;63123;50.906;4.198;2023-04-24T06:13:17;2.90;;;2.70;;
74616;SDS011;63123;50.906;4.198;2023-04-24T06:15:43;3.30;;;3.00;;
74616;SDS011;63123;50.906;4.198;2023-04-24T06:18:08;2.65;;;2.45;;
74616;SDS011;63123;50.906;4.198;2023-04-24T06:20:37;2.85;;;2.55;;
74616;SDS011;63123;50.906;4.198;2023-04-24T06:23:03;3.08;;;2.85;;
74616;SDS011;63123;50.906;4.198;2023-04-24T06:25:29;2.85;;;2.65;;
74616;SDS011;63123;50.906;4.198;2023-04-24T06:27:55;3.30;;;2.80;;
74616;SDS011;63123;50.906;4.198;2023-04-24T06:30:21;3.25;;;2.97;;
74616;SDS011;63123;50.906;4.198;2023-04-24T06:32:47;4.60;;;3.25;;
74616;SDS011;63123;50.906;4.198;2023-04-24T06:35:12;4.05;;;3.17;;
74616;SDS011;63123;50.906;4.198;2023-04-24T06:37:39;4.00;;;3.60;;
74616;SDS011;63123;50.906;4.198;2023-04-24T06:40:05;4.40;;;3.80;;
74616;SDS011;63123;50.906;4.198;2023-04-24T06:42:31;3.67;;;3.38;;
74616;SDS011;63123;50.906;4.198;2023-04-24T06:44:56;4.55;;;4.18;;
74616;SDS011;63123;50.906;4.198;2023-04-24T06:47:22;3.85;;;3.47;;
74616;SDS011;63123;50.906;4.198;2023-04-24T06:49:48;3.90;;;3.60;;
74616;SDS011;63123;50.906;4.198;2023-04-24T06:52:15;4.68;;;3.53;;
74616;SDS011;63123;50.906;4.198;2023-04-24T06:54:41;3.85;;;3.55;;
74616;SDS011;63123;50.906;4.198;2023-04-24T06:57:07;3.75;;;3.45;;
74616;SDS011;63123;50.906;4.198;2023-04-24T06:59:33;4.13;;;3.72;;
74616;SDS011;63123;50.906;4.198;2023-04-24T07:01:59;4.40;;;4.00;;
74616;SDS011;63123;50.906;4.198;2023-04-24T07:04:25;4.45;;;3.55;;
74616;SDS011;63123;50.906;4.198;2023-04-24T07:06:51;3.70;;;3.40;;
74616;SDS011;63123;50.906;4.198;2023-04-24T07:09:19;4.30;;;3.80;;
74616;SDS011;63123;50.906;4.198;2023-04-24T07:11:45;4.00;;;3.63;;
74616;SDS011;63123;50.906;4.198;2023-04-24T07:14:11;4.50;;;3.92;;
74616;SDS011;63123;50.906;4.198;2023-04-24T07:16:37;4.40;;;4.00;;
74616;SDS011;63123;50.906;4.198;2023-04-24T07:19:02;3.22;;;2.92;;
74616;SDS011;63123;50.906;4.198;2023-04-24T07:21:28;3.63;;;2.92;;
74616;SDS011;63123;50.906;4.198;2023-04-24T07:23:56;3.72;;;3.42;;
74616;SDS011;63123;50.906;4.198;2023-04-24T07:26:21;4.18;;;3.88;;
74616;SDS011;63123;50.906;4.198;2023-04-24T07:28:47;3.50;;;3.20;;
74616;SDS011;63123;50.906;4.198;2023-04-24T07:31:13;3.08;;;2.80;;
74616;SDS011;63123;50.906;4.198;2023-04-24T07:33:38;3.65;;;3.10;;
74616;SDS011;63123;50.906;4.198;2023-04-24T07:36:04;3.38;;;2.42;;
74616;SDS011;63123;50.906;4.198;2023-04-24T07:38:30;3.13;;;2.92;;
74616;SDS011;63123;50.906;4.198;2023-04-24T07:40:56;3.17;;;2.88;;
74616;SDS011;63123;50.906;4.198;2023-04-24T07:43:21;3.35;;;3.03;;
74616;SDS011;63123;50.906;4.198;2023-04-24T07:45:48;3.78;;;3.00;;
74616;SDS011;63123;50.906;4.198;2023-04-24T07:48:16;3.22;;;2.92;;
74616;SDS011;63123;50.906;4.198;2023-04-24T07:50:43;4.00;;;3.65;;
74616;SDS011;63123;50.906;4.198;2023-04-24T07:53:11;3.85;;;3.13;;
74616;SDS011;63123;50.906;4.198;2023-04-24T07:55:37;3.42;;;3.13;;
74616;SDS011;63123;50.906;4.198;2023-04-24T07:58:02;4.32;;;2.92;;
74616;SDS011;63123;50.906;4.198;2023-04-24T08:00:28;3.25;;;2.95;;
74616;SDS011;63123;50.906;4.198;2023-04-24T08:02:54;3.25;;;2.92;;
74616;SDS011;63123;50.906;4.198;2023-04-24T08:05:20;3.75;;;3.45;;
74616;SDS011;63123;50.906;4.198;2023-04-24T08:07:45;3.20;;;2.90;;
74616;SDS011;63123;50.906;4.198;2023-04-24T08:10:13;3.17;;;2.97;;
74616;SDS011;63123;50.906;4.198;2023-04-24T08:12:40;4.05;;;3.60;;
74616;SDS011;63123;50.906;4.198;2023-04-24T08:15:06;3.80;;;3.17;;
74616;SDS011;63123;50.906;4.198;2023-04-24T08:17:32;3.60;;;3.25;;
74616;SDS011;63123;50.906;4.198;2023-04-24T08:19:58;3.30;;;2.80;;
74616;SDS011;63123;50.906;4.198;2023-04-24T08:22:26;3.00;;;2.70;;
74616;SDS011;63123;50.906;4.198;2023-04-24T08:24:53;3.13;;;2.80;;
74616;SDS011;63123;50.906;4.198;2023-04-24T08:27:19;3.35;;;2.97;;
74616;SDS011;63123;50.906;4.198;2023-04-24T08:29:45;3.60;;;3.30;;
74616;SDS011;63123;50.906;4.198;2023-04-24T08:32:10;3.92;;;3.53;;
74616;SDS011;63123;50.906;4.198;2023-04-24T08:34:36;3.20;;;2.83;;
74616;SDS011;63123;50.906;4.198;2023-04-24T08:37:02;3.85;;;3.47;;
74616;SDS011;63123;50.906;4.198;2023-04-24T08:39:28;4.05;;;2.75;;
74616;SDS011;63123;50.906;4.198;2023-04-24T08:41:54;4.07;;;3.38;;
74616;SDS011;63123;50.906;4.198;2023-04-24T08:44:20;3.80;;;3.50;;
74616;SDS011;63123;50.906;4.198;2023-04-24T08:46:47;3.45;;;3.15;;
74616;SDS011;63123;50.906;4.198;2023-04-24T08:49:14;3.42;;;3.13;;
74616;SDS011;63123;50.906;4.198;2023-04-24T08:51:43;3.47;;;3.17;;
74616;SDS011;63123;50.906;4.198;2023-04-24T08:54:10;3.10;;;2.80;;
74616;SDS011;63123;50.906;4.198;2023-04-24T08:56:37;3.42;;;3.13;;
74616;SDS011;63123;50.906;4.198;2023-04-24T08:59:05;3.85;;;3.15;;
74616;SDS011;63123;50.906;4.198;2023-04-24T09:01:31;3.22;;;2.80;;
74616;SDS011;63123;50.906;4.198;2023-04-24T09:03:59;3.67;;;3.33;;
74616;SDS011;63123;50.906;4.198;2023-04-24T09:06:27;3.35;;;3.05;;
74616;SDS011;63123;50.906;4.198;2023-04-24T09:08:53;4.18;;;3.88;;
74616;SDS011;63123;50.906;4.198;2023-04-24T09:11:20;2.67;;;2.42;;
74616;SDS011;63123;50.906;4.198;2023-04-24T09:13:49;4.25;;;3.28;;
74616;SDS011;63123;50.906;4.198;2023-04-24T09:16:16;4.53;;;3.15;;
74616;SDS011;63123;50.906;4.198;2023-04-24T09:18:42;3.53;;;3.20;;
74616;SDS011;63123;50.906;4.198;2023-04-24T09:21:08;3.40;;;3.10;;
74616;SDS011;63123;50.906;4.198;2023-04-24T09:23:34;3.20;;;3.00;;
74616;SDS011;63123;50.906;4.198;2023-04-24T09:26:01;3.70;;;2.88;;
74616;SDS011;63123;50.906;4.198;2023-04-24T09:28:41;2.92;;;2.70;;
74616;SDS011;63123;50.906;4.198;2023-04-24T09:36:31;3.22;;;2.67;;
74616;SDS011;63123;50.906;4.198;2023-04-24T09:39:03;3.28;;;2.90;;
74616;SDS011;63123;50.906;4.198;2023-04-24T09:41:31;4.93;;;3.10;;
74616;SDS011;63123;50.906;4.198;2023-04-24T09:43:58;5.80;;;3.78;;
74616;SDS011;63123;50.906;4.198;2023-04-24T09:46:40;3.13;;;2.83;;
74616;SDS011;63123;50.906;4.198;2023-04-24T09:49:12;3.10;;;2.80;;
74616;SDS011;63123;50.906;4.198;2023-04-24T09:51:40;2.87;;;2.67;;
74616;SDS011;63123;50.906;4.198;2023-04-24T09:54:19;3.53;;;3.22;;
74616;SDS011;63123;50.906;4.198;2023-04-24T09:56:46;2.90;;;2.70;;
74616;SDS011;63123;50.906;4.198;2023-04-24T09:59:14;2.92;;;2.72;;
74616;SDS011;63123;50.906;4.198;2023-04-24T10:01:40;4.15;;;3.28;;
74616;SDS011;63123;50.906;4.198;2023-04-24T10:04:16;2.92;;;2.72;;
74616;SDS011;63123;50.906;4.198;2023-04-24T10:06:48;3.70;;;3.40;;
74616;SDS011;63123;50.906;4.198;2023-04-24T10:09:15;3.00;;;2.63;;
74616;SDS011;63123;50.906;4.198;2023-04-24T10:11:43;3.83;;;3.05;;
74616;SDS011;63123;50.906;4.198;2023-04-24T10:14:17;3.30;;;3.00;;
74616;SDS011;63123;50.906;4.198;2023-04-24T10:16:44;2.90;;;2.42;;
74616;SDS011;63123;50.906;4.198;2023-04-24T10:19:12;3.35;;;2.90;;
74616;SDS011;63123;50.906;4.198;2023-04-24T10:21:38;3.38;;;3.08;;
74616;SDS011;63123;50.906;4.198;2023-04-24T10:24:08;3.75;;;3.13;;
74616;SDS011;63123;50.906;4.198;2023-04-24T10:26:35;2.80;;;2.60;;
74616;SDS011;63123;50.906;4.198;2023-04-24T10:29:02;3.33;;;3.03;;
74616;SDS011;63123;50.906;4.198;2023-04-24T10:31:34;3.47;;;2.92;;
74616;SDS011;63123;50.906;4.198;2023-04-24T10:34:01;3.05;;;2.72;;
74616;SDS011;63123;50.906;4.198;2023-04-24T10:36:27;3.58;;;2.85;;
74616;SDS011;63123;50.906;4.198;2023-04-24T10:38:54;3.40;;;3.10;;
74616;SDS011;63123;50.906;4.198;2023-04-24T10:41:21;3.17;;;2.88;;
74616;SDS011;63123;50.906;4.198;2023-04-24T10:44:10;2.92;;;2.65;;
74616;SDS011;63123;50.906;4.198;2023-04-24T10:46:37;3.72;;;2.80;;
74616;SDS011;63123;50.906;4.198;2023-04-24T10:49:06;2.85;;;2.65;;
74616;SDS011;63123;50.906;4.198;2023-04-24T10:54:29;3.22;;;2.83;;
74616;SDS011;63123;50.906;4.198;2023-04-24T10:59:51;3.72;;;2.90;;
74616;SDS011;63123;50.906;4.198;2023-04-24T11:02:35;3.40;;;2.83;;
74616;SDS011;63123;50.906;4.198;2023-04-24T11:05:03;2.65;;;2.45;;
74616;SDS011;63123;50.906;4.198;2023-04-24T11:07:29;3.78;;;2.88;;
74616;SDS011;63123;50.906;4.198;2023-04-24T11:09:58;3.30;;;3.00;;
74616;SDS011;63123;50.906;4.198;2023-04-24T11:12:26;3.88;;;3.47;;
74616;SDS011;63123;50.906;4.198;2023-04-24T11:17:29;3.40;;;2.95;;
74616;SDS011;63123;50.906;4.198;2023-04-24T11:20:02;3.65;;;3.30;;
74616;SDS011;63123;50.906;4.198;2023-04-24T11:22:32;3.70;;;3.20;;
74616;SDS011;63123;50.906;4.198;2023-04-24T11:25:03;3.70;;;3.00;;
74616;SDS011;63123;50.906;4.198;2023-04-24T11:27:29;3.03;;;2.70;;
74616;SDS011;63123;50.906;4.198;2023-04-24T11:32:24;3.22;;;2.92;;
74616;SDS011;63123;50.906;4.198;2023-04-24T11:34:54;3.80;;;3.33;;
74616;SDS011;63123;50.906;4.198;2023-04-24T11:37:38;3.30;;;3.00;;
74616;SDS011;63123;50.906;4.198;2023-04-24T11:40:06;3.80;;;3.43;;
74616;SDS011;63123;50.906;4.198;2023-04-24T11:42:37;3.50;;;3.20;;
74616;SDS011;63123;50.906;4.198;2023-04-24T11:45:08;3.60;;;3.30;;
74616;SDS011;63123;50.906;4.198;2023-04-24T11:47:35;4.00;;;3.30;;
74616;SDS011;63123;50.906;4.198;2023-04-24T11:50:02;3.03;;;2.75;;
74616;SDS011;63123;50.906;4.198;2023-04-24T11:52:29;2.85;;;2.65;;
74616;SDS011;63123;50.906;4.198;2023-04-24T11:54:55;4.22;;;3.53;;
74616;SDS011;63123;50.906;4.198;2023-04-24T11:57:24;3.40;;;3.05;;
74616;SDS011;63123;50.906;4.198;2023-04-24T11:59:53;3.60;;;3.30;;
74616;SDS011;63123;50.906;4.198;2023-04-24T12:02:20;3.55;;;3.15;;
74616;SDS011;63123;50.906;4.198;2023-04-24T12:04:49;3.42;;;3.10;;
74616;SDS011;63123;50.906;4.198;2023-04-24T12:07:15;3.63;;;3.33;;
74616;SDS011;63123;50.906;4.198;2023-04-24T12:09:44;3.47;;;3.20;;
74616;SDS011;63123;50.906;4.198;2023-04-24T12:12:15;3.60;;;3.30;;
74616;SDS011;63123;50.906;4.198;2023-04-24T12:14:48;3.58;;;3.28;;
74616;SDS011;63123;50.906;4.198;2023-04-24T12:17:17;3.40;;;3.10;;
74616;SDS011;63123;50.906;4.198;2023-04-24T12:19:46;3.45;;;3.15;;
74616;SDS011;63123;50.906;4.198;2023-04-24T12:22:13;3.35;;;3.10;;
74616;SDS011;63123;50.906;4.198;2023-04-24T12:24:58;3.33;;;3.03;;
74616;SDS011;63123;50.906;4.198;2023-04-24T12:27:26;3.80;;;3.42;;
74616;SDS011;63123;50.906;4.198;2023-04-24T12:29:57;3.00;;;2.78;;
74616;SDS011;63123;50.906;4.198;2023-04-24T12:32:24;3.67;;;3.17;;
74616;SDS011;63123;50.906;4.198;2023-04-24T12:34:50;3.40;;;3.10;;
74616;SDS011;63123;50.906;4.198;2023-04-24T12:37:17;3.50;;;3.20;;
74616;SDS011;63123;50.906;4.198;2023-04-24T12:42:35;3.92;;;3.25;;
74616;SDS011;63123;50.906;4.198;2023-04-24T12:45:06;3.15;;;2.95;;
74616;SDS011;63123;50.906;4.198;2023-04-24T12:47:33;3.40;;;3.03;;
74616;SDS011;63123;50.906;4.198;2023-04-24T12:49:59;3.10;;;2.90;;
74616;SDS011;63123;50.906;4.198;2023-04-24T12:52:27;2.90;;;2.70;;
74616;SDS011;63123;50.906;4.198;2023-04-24T12:54:54;2.67;;;2.47;;
74616;SDS011;63123;50.906;4.198;2023-04-24T12:57:24;3.20;;;2.90;;
74616;SDS011;63123;50.906;4.198;2023-04-24T12:59:53;3.38;;;3.15;;
74616;SDS011;63123;50.906;4.198;2023-04-24T13:02:20;2.80;;;2.60;;
74616;SDS011;63123;50.906;4.198;2023-04-24T13:04:47;2.85;;;2.65;;
74616;SDS011;63123;50.906;4.198;2023-04-24T13:07:13;3.05;;;2.85;;
74616;SDS011;63123;50.906;4.198;2023-04-24T13:09:39;3.13;;;2.83;;
74616;SDS011;63123;50.906;4.198;2023-04-24T13:12:06;3.15;;;2.65;;
74616;SDS011;63123;50.906;4.198;2023-04-24T13:14:32;3.75;;;2.78;;
74616;SDS011;63123;50.906;4.198;2023-04-24T13:16:58;2.95;;;2.63;;
74616;SDS011;63123;50.906;4.198;2023-04-24T13:19:24;2.95;;;2.47;;
74616;SDS011;63123;50.906;4.198;2023-04-24T13:21:54;3.33;;;2.88;;
74616;SDS011;63123;50.906;4.198;2023-04-24T13:24:21;2.95;;;2.65;;
74616;SDS011;63123;50.906;4.198;2023-04-24T13:26:50;2.70;;;2.50;;
74616;SDS011;63123;50.906;4.198;2023-04-24T13:29:17;2.85;;;2.65;;
74616;SDS011;63123;50.906;4.198;2023-04-24T13:31:42;3.45;;;2.60;;
74616;SDS011;63123;50.906;4.198;2023-04-24T13:34:08;2.25;;;2.00;;
74616;SDS011;63123;50.906;4.198;2023-04-24T13:36:34;2.60;;;2.40;;
74616;SDS011;63123;50.906;4.198;2023-04-24T13:39:00;2.75;;;2.40;;
74616;SDS011;63123;50.906;4.198;2023-04-24T13:41:26;2.30;;;2.10;;
74616;SDS011;63123;50.906;4.198;2023-04-24T13:43:51;2.97;;;2.33;;
74616;SDS011;63123;50.906;4.198;2023-04-24T13:46:17;2.65;;;2.45;;
74616;SDS011;63123;50.906;4.198;2023-04-24T13:48:43;2.95;;;2.67;;
74616;SDS011;63123;50.906;4.198;2023-04-24T13:51:08;2.53;;;2.33;;
74616;SDS011;63123;50.906;4.198;2023-04-24T13:53:34;2.33;;;2.10;;
74616;SDS011;63123;50.906;4.198;2023-04-24T13:56:03;2.40;;;2.20;;
74616;SDS011;63123;50.906;4.198;2023-04-24T13:58:29;2.47;;;2.28;;
74616;SDS011;63123;50.906;4.198;2023-04-24T14:00:54;2.90;;;2.13;;
74616;SDS011;63123;50.906;4.198;2023-04-24T14:03:20;2.25;;;2.10;;
74616;SDS011;63123;50.906;4.198;2023-04-24T14:05:46;3.60;;;2.30;;
74616;SDS011;63123;50.906;4.198;2023-04-24T14:08:11;2.63;;;2.42;;
74616;SDS011;63123;50.906;4.198;2023-04-24T14:10:37;2.97;;;2.40;;
74616;SDS011;63123;50.906;4.198;2023-04-24T14:13:02;2.78;;;2.38;;
74616;SDS011;63123;50.906;4.198;2023-04-24T14:15:28;2.25;;;2.15;;
74616;SDS011;63123;50.906;4.198;2023-04-24T14:17:54;2.20;;;1.95;;
74616;SDS011;63123;50.906;4.198;2023-04-24T14:20:20;2.50;;;2.28;;
74616;SDS011;63123;50.906;4.198;2023-04-24T14:22:45;2.35;;;2.15;;
74616;SDS011;63123;50.906;4.198;2023-04-24T14:25:11;2.10;;;1.92;;
74616;SDS011;63123;50.906;4.198;2023-04-24T14:27:37;2.67;;;2.10;;
74616;SDS011;63123;50.906;4.198;2023-04-24T14:30:03;2.10;;;1.90;;
74616;SDS011;63123;50.906;4.198;2023-04-24T14:32:29;2.33;;;2.13;;
74616;SDS011;63123;50.906;4.198;2023-04-24T14:34:55;2.15;;;2.03;;
74616;SDS011;63123;50.906;4.198;2023-04-24T14:37:20;2.70;;;2.50;;
74616;SDS011;63123;50.906;4.198;2023-04-24T14:39:46;2.60;;;2.08;;
74616;SDS011;63123;50.906;4.198;2023-04-24T14:42:11;2.25;;;1.75;;
74616;SDS011;63123;50.906;4.198;2023-04-24T14:44:37;2.03;;;1.88;;
74616;SDS011;63123;50.906;4.198;2023-04-24T14:47:03;2.17;;;1.98;;
74616;SDS011;63123;50.906;4.198;2023-04-24T14:49:28;1.98;;;1.77;;
74616;SDS011;63123;50.906;4.198;2023-04-24T14:51:54;1.92;;;1.73;;
74616;SDS011;63123;50.906;4.198;2023-04-24T14:54:20;2.45;;;2.20;;
74616;SDS011;63123;50.906;4.198;2023-04-24T14:56:48;2.30;;;2.10;;
74616;SDS011;63123;50.906;4.198;2023-04-24T14:59:14;2.10;;;1.90;;
74616;SDS011;63123;50.906;4.198;2023-04-24T15:01:40;1.83;;;1.67;;
74616;SDS011;63123;50.906;4.198;2023-04-24T15:04:05;2.40;;;2.20;;